sensor_id;sensor_type;location;lat;lon;timestamp;P1;durP1;ratioP1;P2;durP2;ratioP2
49578;SDS011;35483;50.828;3.228;2022-10-17T00:00:49;7.80;;;6.30;;
49578;SDS011;35483;50.828;3.228;2022-10-17T00:03:14;9.00;;;6.47;;
49578;SDS011;35483;50.828;3.228;2022-10-17T00:05:41;7.18;;;6.43;;
49578;SDS011;35483;50.828;3.228;2022-10-17T00:08:09;7.22;;;6.53;;
49578;SDS011;35483;50.828;3.228;2022-10-17T00:10:36;7.57;;;6.53;;
49578;SDS011;35483;50.828;3.228;2022-10-17T00:13:02;9.27;;;6.10;;
49578;SDS011;35483;50.828;3.228;2022-10-17T00:15:28;7.95;;;6.05;;
49578;SDS011;35483;50.828;3.228;2022-10-17T00:17:54;6.53;;;5.82;;
49578;SDS011;35483;50.828;3.228;2022-10-17T00:20:20;7.70;;;6.07;;
49578;SDS011;35483;50.828;3.228;2022-10-17T00:22:46;6.70;;;5.50;;
49578;SDS011;35483;50.828;3.228;2022-10-17T00:25:11;7.88;;;6.05;;
49578;SDS011;35483;50.828;3.228;2022-10-17T00:27:38;6.80;;;5.72;;
49578;SDS011;35483;50.828;3.228;2022-10-17T00:30:06;7.35;;;5.45;;
49578;SDS011;35483;50.828;3.228;2022-10-17T00:32:34;9.07;;;6.13;;
49578;SDS011;35483;50.828;3.228;2022-10-17T00:35:00;7.75;;;5.70;;
49578;SDS011;35483;50.828;3.228;2022-10-17T00:37:29;6.78;;;5.93;;
49578;SDS011;35483;50.828;3.228;2022-10-17T00:39:55;7.07;;;5.22;;
49578;SDS011;35483;50.828;3.228;2022-10-17T00:42:21;7.50;;;5.32;;
49578;SDS011;35483;50.828;3.228;2022-10-17T00:47:18;7.30;;;5.47;;
49578;SDS011;35483;50.828;3.228;2022-10-17T00:49:46;8.55;;;5.55;;
49578;SDS011;35483;50.828;3.228;2022-10-17T00:52:20;7.03;;;5.80;;
49578;SDS011;35483;50.828;3.228;2022-10-17T00:54:50;6.13;;;4.82;;
49578;SDS011;35483;50.828;3.228;2022-10-17T00:57:20;6.20;;;5.40;;
49578;SDS011;35483;50.828;3.228;2022-10-17T00:59:47;8.30;;;5.53;;
49578;SDS011;35483;50.828;3.228;2022-10-17T01:02:17;6.20;;;5.43;;
49578;SDS011;35483;50.828;3.228;2022-10-17T01:04:45;7.78;;;5.40;;
49578;SDS011;35483;50.828;3.228;2022-10-17T01:07:14;9.48;;;5.72;;
49578;SDS011;35483;50.828;3.228;2022-10-17T01:09:40;6.75;;;5.88;;
49578;SDS011;35483;50.828;3.228;2022-10-17T01:12:09;6.50;;;5.75;;
49578;SDS011;35483;50.828;3.228;2022-10-17T01:17:42;6.32;;;5.65;;
49578;SDS011;35483;50.828;3.228;2022-10-17T01:30:58;6.95;;;5.70;;
49578;SDS011;35483;50.828;3.228;2022-10-17T01:33:43;6.68;;;5.88;;
49578;SDS011;35483;50.828;3.228;2022-10-17T01:36:20;6.22;;;5.60;;
49578;SDS011;35483;50.828;3.228;2022-10-17T01:38:56;6.25;;;5.65;;
49578;SDS011;35483;50.828;3.228;2022-10-17T01:41:41;7.40;;;5.65;;
49578;SDS011;35483;50.828;3.228;2022-10-17T01:44:12;7.40;;;5.93;;
49578;SDS011;35483;50.828;3.228;2022-10-17T01:47:02;6.90;;;5.70;;
49578;SDS011;35483;50.828;3.228;2022-10-17T01:49:32;6.93;;;5.35;;
49578;SDS011;35483;50.828;3.228;2022-10-17T01:52:00;9.45;;;5.85;;
49578;SDS011;35483;50.828;3.228;2022-10-17T01:54:31;7.07;;;5.88;;
49578;SDS011;35483;50.828;3.228;2022-10-17T01:57:04;6.97;;;5.88;;
49578;SDS011;35483;50.828;3.228;2022-10-17T01:59:42;6.57;;;5.53;;
49578;SDS011;35483;50.828;3.228;2022-10-17T02:02:11;6.32;;;5.72;;
49578;SDS011;35483;50.828;3.228;2022-10-17T02:04:40;6.85;;;5.60;;
49578;SDS011;35483;50.828;3.228;2022-10-17T02:07:09;6.18;;;5.57;;
49578;SDS011;35483;50.828;3.228;2022-10-17T02:09:36;9.05;;;5.97;;
49578;SDS011;35483;50.828;3.228;2022-10-17T02:14:44;7.38;;;5.85;;
49578;SDS011;35483;50.828;3.228;2022-10-17T02:17:34;6.22;;;5.63;;
49578;SDS011;35483;50.828;3.228;2022-10-17T02:20:19;7.53;;;6.07;;
49578;SDS011;35483;50.828;3.228;2022-10-17T02:22:55;7.45;;;5.72;;
49578;SDS011;35483;50.828;3.228;2022-10-17T02:25:33;6.25;;;5.25;;
49578;SDS011;35483;50.828;3.228;2022-10-17T02:30:52;8.75;;;5.97;;
49578;SDS011;35483;50.828;3.228;2022-10-17T02:33:24;7.60;;;6.65;;
49578;SDS011;35483;50.828;3.228;2022-10-17T02:35:53;6.03;;;5.43;;
49578;SDS011;35483;50.828;3.228;2022-10-17T02:38:27;10.10;;;5.68;;
49578;SDS011;35483;50.828;3.228;2022-10-17T02:40:54;5.80;;;5.20;;
49578;SDS011;35483;50.828;3.228;2022-10-17T02:43:20;7.80;;;5.50;;
49578;SDS011;35483;50.828;3.228;2022-10-17T02:45:47;6.50;;;5.30;;
49578;SDS011;35483;50.828;3.228;2022-10-17T02:48:16;5.70;;;5.10;;
49578;SDS011;35483;50.828;3.228;2022-10-17T02:56:37;6.82;;;4.97;;
49578;SDS011;35483;50.828;3.228;2022-10-17T02:59:06;6.22;;;5.15;;
49578;SDS011;35483;50.828;3.228;2022-10-17T03:01:36;6.30;;;5.13;;
49578;SDS011;35483;50.828;3.228;2022-10-17T03:04:05;8.80;;;5.45;;
49578;SDS011;35483;50.828;3.228;2022-10-17T03:06:33;8.68;;;5.22;;
49578;SDS011;35483;50.828;3.228;2022-10-17T03:08:59;7.00;;;5.05;;
49578;SDS011;35483;50.828;3.228;2022-10-17T03:11:25;7.47;;;5.82;;
49578;SDS011;35483;50.828;3.228;2022-10-17T03:13:51;7.28;;;5.25;;
49578;SDS011;35483;50.828;3.228;2022-10-17T03:16:17;7.22;;;5.10;;
49578;SDS011;35483;50.828;3.228;2022-10-17T03:18:42;6.22;;;5.13;;
49578;SDS011;35483;50.828;3.228;2022-10-17T03:21:08;6.65;;;5.72;;
49578;SDS011;35483;50.828;3.228;2022-10-17T03:23:34;6.47;;;4.70;;
49578;SDS011;35483;50.828;3.228;2022-10-17T03:26:03;6.97;;;5.10;;
49578;SDS011;35483;50.828;3.228;2022-10-17T03:28:30;8.70;;;5.97;;
49578;SDS011;35483;50.828;3.228;2022-10-17T03:30:56;7.05;;;5.47;;
49578;SDS011;35483;50.828;3.228;2022-10-17T03:33:21;6.28;;;5.28;;
49578;SDS011;35483;50.828;3.228;2022-10-17T03:35:47;6.78;;;4.93;;
49578;SDS011;35483;50.828;3.228;2022-10-17T03:38:13;6.13;;;5.28;;
49578;SDS011;35483;50.828;3.228;2022-10-17T03:40:38;5.82;;;5.22;;
49578;SDS011;35483;50.828;3.228;2022-10-17T03:43:04;6.88;;;5.30;;
49578;SDS011;35483;50.828;3.228;2022-10-17T03:45:30;5.35;;;4.85;;
49578;SDS011;35483;50.828;3.228;2022-10-17T03:47:57;5.72;;;5.20;;
49578;SDS011;35483;50.828;3.228;2022-10-17T03:50:23;6.72;;;5.13;;
49578;SDS011;35483;50.828;3.228;2022-10-17T03:52:49;5.72;;;5.05;;
49578;SDS011;35483;50.828;3.228;2022-10-17T03:55:15;7.57;;;5.65;;
49578;SDS011;35483;50.828;3.228;2022-10-17T03:57:42;6.28;;;4.63;;
49578;SDS011;35483;50.828;3.228;2022-10-17T04:00:08;5.80;;;5.20;;
49578;SDS011;35483;50.828;3.228;2022-10-17T04:02:35;7.10;;;5.93;;
49578;SDS011;35483;50.828;3.228;2022-10-17T04:05:00;7.60;;;5.30;;
49578;SDS011;35483;50.828;3.228;2022-10-17T04:07:26;6.80;;;5.82;;
49578;SDS011;35483;50.828;3.228;2022-10-17T04:09:52;6.72;;;5.90;;
49578;SDS011;35483;50.828;3.228;2022-10-17T04:12:18;10.13;;;6.65;;
49578;SDS011;35483;50.828;3.228;2022-10-17T04:14:43;9.07;;;6.63;;
49578;SDS011;35483;50.828;3.228;2022-10-17T04:17:09;9.02;;;6.47;;
49578;SDS011;35483;50.828;3.228;2022-10-17T04:19:35;8.40;;;6.25;;
49578;SDS011;35483;50.828;3.228;2022-10-17T04:22:00;7.90;;;5.95;;
49578;SDS011;35483;50.828;3.228;2022-10-17T04:24:28;9.63;;;6.13;;
49578;SDS011;35483;50.828;3.228;2022-10-17T04:26:53;7.45;;;6.03;;
49578;SDS011;35483;50.828;3.228;2022-10-17T04:29:19;7.05;;;6.18;;
49578;SDS011;35483;50.828;3.228;2022-10-17T04:31:45;7.88;;;6.75;;
49578;SDS011;35483;50.828;3.228;2022-10-17T04:34:11;8.65;;;6.38;;
49578;SDS011;35483;50.828;3.228;2022-10-17T04:36:38;6.63;;;5.90;;
49578;SDS011;35483;50.828;3.228;2022-10-17T04:39:04;16.25;;;6.75;;
49578;SDS011;35483;50.828;3.228;2022-10-17T04:41:30;7.72;;;5.90;;
49578;SDS011;35483;50.828;3.228;2022-10-17T04:43:56;8.10;;;5.97;;
49578;SDS011;35483;50.828;3.228;2022-10-17T04:46:22;6.57;;;5.90;;
49578;SDS011;35483;50.828;3.228;2022-10-17T04:48:47;10.15;;;6.63;;
49578;SDS011;35483;50.828;3.228;2022-10-17T04:51:14;6.82;;;6.10;;
49578;SDS011;35483;50.828;3.228;2022-10-17T04:53:43;7.75;;;6.05;;
49578;SDS011;35483;50.828;3.228;2022-10-17T04:56:10;10.75;;;6.43;;
49578;SDS011;35483;50.828;3.228;2022-10-17T04:58:39;8.85;;;6.85;;
49578;SDS011;35483;50.828;3.228;2022-10-17T05:01:14;7.50;;;6.57;;
49578;SDS011;35483;50.828;3.228;2022-10-17T05:03:42;6.38;;;5.78;;
49578;SDS011;35483;50.828;3.228;2022-10-17T05:06:09;10.18;;;6.88;;
49578;SDS011;35483;50.828;3.228;2022-10-17T05:08:40;8.57;;;6.60;;
49578;SDS011;35483;50.828;3.228;2022-10-17T05:11:16;11.93;;;6.90;;
49578;SDS011;35483;50.828;3.228;2022-10-17T05:13:50;8.20;;;6.82;;
49578;SDS011;35483;50.828;3.228;2022-10-17T05:16:21;8.05;;;6.70;;
49578;SDS011;35483;50.828;3.228;2022-10-17T05:18:51;9.40;;;7.20;;
49578;SDS011;35483;50.828;3.228;2022-10-17T05:21:19;8.10;;;6.53;;
49578;SDS011;35483;50.828;3.228;2022-10-17T05:23:45;9.02;;;7.40;;
49578;SDS011;35483;50.828;3.228;2022-10-17T05:26:11;9.73;;;7.03;;
49578;SDS011;35483;50.828;3.228;2022-10-17T05:28:37;9.18;;;7.25;;
49578;SDS011;35483;50.828;3.228;2022-10-17T05:31:03;10.02;;;7.45;;
49578;SDS011;35483;50.828;3.228;2022-10-17T05:33:30;9.10;;;7.88;;
49578;SDS011;35483;50.828;3.228;2022-10-17T05:35:56;8.65;;;7.40;;
49578;SDS011;35483;50.828;3.228;2022-10-17T05:38:22;7.97;;;6.78;;
49578;SDS011;35483;50.828;3.228;2022-10-17T05:40:48;11.98;;;6.90;;
49578;SDS011;35483;50.828;3.228;2022-10-17T05:43:14;10.02;;;7.53;;
49578;SDS011;35483;50.828;3.228;2022-10-17T05:45:40;10.85;;;8.48;;
49578;SDS011;35483;50.828;3.228;2022-10-17T05:48:05;11.07;;;7.90;;
49578;SDS011;35483;50.828;3.228;2022-10-17T05:50:33;10.40;;;7.72;;
49578;SDS011;35483;50.828;3.228;2022-10-17T05:52:59;9.30;;;7.32;;
49578;SDS011;35483;50.828;3.228;2022-10-17T05:55:25;9.52;;;7.75;;
49578;SDS011;35483;50.828;3.228;2022-10-17T05:57:51;9.50;;;7.10;;
49578;SDS011;35483;50.828;3.228;2022-10-17T06:00:18;9.32;;;7.43;;
49578;SDS011;35483;50.828;3.228;2022-10-17T06:02:44;10.15;;;7.68;;
49578;SDS011;35483;50.828;3.228;2022-10-17T06:05:12;13.18;;;8.75;;
49578;SDS011;35483;50.828;3.228;2022-10-17T06:07:38;8.90;;;7.35;;
49578;SDS011;35483;50.828;3.228;2022-10-17T06:10:04;10.23;;;7.68;;
49578;SDS011;35483;50.828;3.228;2022-10-17T06:12:30;9.55;;;8.02;;
49578;SDS011;35483;50.828;3.228;2022-10-17T06:14:56;12.57;;;8.38;;
49578;SDS011;35483;50.828;3.228;2022-10-17T06:17:22;13.15;;;8.63;;
49578;SDS011;35483;50.828;3.228;2022-10-17T06:19:47;10.52;;;8.57;;
49578;SDS011;35483;50.828;3.228;2022-10-17T06:22:13;12.05;;;8.27;;
49578;SDS011;35483;50.828;3.228;2022-10-17T06:24:39;10.88;;;8.50;;
49578;SDS011;35483;50.828;3.228;2022-10-17T06:27:04;10.30;;;9.20;;
49578;SDS011;35483;50.828;3.228;2022-10-17T06:29:30;12.80;;;8.63;;
49578;SDS011;35483;50.828;3.228;2022-10-17T06:31:56;9.73;;;8.73;;
49578;SDS011;35483;50.828;3.228;2022-10-17T06:34:22;11.23;;;8.32;;
49578;SDS011;35483;50.828;3.228;2022-10-17T06:36:47;11.32;;;8.68;;
49578;SDS011;35483;50.828;3.228;2022-10-17T06:39:13;12.02;;;8.57;;
49578;SDS011;35483;50.828;3.228;2022-10-17T06:41:39;11.93;;;9.13;;
49578;SDS011;35483;50.828;3.228;2022-10-17T06:44:06;13.00;;;9.50;;
49578;SDS011;35483;50.828;3.228;2022-10-17T06:46:37;12.23;;;9.45;;
49578;SDS011;35483;50.828;3.228;2022-10-17T06:49:04;14.05;;;9.18;;
49578;SDS011;35483;50.828;3.228;2022-10-17T06:51:30;12.65;;;9.45;;
49578;SDS011;35483;50.828;3.228;2022-10-17T06:53:58;13.60;;;9.60;;
49578;SDS011;35483;50.828;3.228;2022-10-17T06:56:24;9.85;;;8.80;;
49578;SDS011;35483;50.828;3.228;2022-10-17T06:58:50;11.82;;;9.38;;
49578;SDS011;35483;50.828;3.228;2022-10-17T07:01:17;12.88;;;9.32;;
49578;SDS011;35483;50.828;3.228;2022-10-17T07:03:42;14.93;;;9.60;;
49578;SDS011;35483;50.828;3.228;2022-10-17T07:06:12;14.48;;;9.70;;
49578;SDS011;35483;50.828;3.228;2022-10-17T07:08:41;13.68;;;9.60;;
49578;SDS011;35483;50.828;3.228;2022-10-17T07:11:12;14.07;;;9.38;;
49578;SDS011;35483;50.828;3.228;2022-10-17T07:13:40;16.05;;;10.45;;
49578;SDS011;35483;50.828;3.228;2022-10-17T07:16:06;11.15;;;9.23;;
49578;SDS011;35483;50.828;3.228;2022-10-17T07:18:32;12.05;;;9.98;;
49578;SDS011;35483;50.828;3.228;2022-10-17T07:20:59;13.98;;;10.25;;
49578;SDS011;35483;50.828;3.228;2022-10-17T07:23:25;15.05;;;10.85;;
49578;SDS011;35483;50.828;3.228;2022-10-17T07:25:51;17.95;;;11.18;;
49578;SDS011;35483;50.828;3.228;2022-10-17T07:28:17;13.75;;;9.48;;
49578;SDS011;35483;50.828;3.228;2022-10-17T07:30:43;14.40;;;10.00;;
49578;SDS011;35483;50.828;3.228;2022-10-17T07:33:10;14.40;;;10.02;;
49578;SDS011;35483;50.828;3.228;2022-10-17T07:35:36;14.43;;;9.77;;
49578;SDS011;35483;50.828;3.228;2022-10-17T07:38:05;12.95;;;9.52;;
49578;SDS011;35483;50.828;3.228;2022-10-17T07:40:31;12.95;;;9.50;;
49578;SDS011;35483;50.828;3.228;2022-10-17T07:42:57;13.38;;;9.10;;
49578;SDS011;35483;50.828;3.228;2022-10-17T07:45:23;11.75;;;9.80;;
49578;SDS011;35483;50.828;3.228;2022-10-17T07:47:54;13.82;;;10.57;;
49578;SDS011;35483;50.828;3.228;2022-10-17T07:50:21;12.90;;;9.70;;
49578;SDS011;35483;50.828;3.228;2022-10-17T07:52:47;13.80;;;10.27;;
49578;SDS011;35483;50.828;3.228;2022-10-17T07:55:13;14.05;;;9.75;;
49578;SDS011;35483;50.828;3.228;2022-10-17T07:57:39;13.43;;;10.10;;
49578;SDS011;35483;50.828;3.228;2022-10-17T08:00:05;14.70;;;10.35;;
49578;SDS011;35483;50.828;3.228;2022-10-17T08:02:32;11.38;;;9.40;;
49578;SDS011;35483;50.828;3.228;2022-10-17T08:04:58;14.23;;;9.70;;
49578;SDS011;35483;50.828;3.228;2022-10-17T08:07:24;13.35;;;9.57;;
49578;SDS011;35483;50.828;3.228;2022-10-17T08:09:50;12.50;;;9.27;;
49578;SDS011;35483;50.828;3.228;2022-10-17T08:12:16;12.48;;;9.10;;
49578;SDS011;35483;50.828;3.228;2022-10-17T08:14:42;12.93;;;9.50;;
49578;SDS011;35483;50.828;3.228;2022-10-17T08:17:08;13.60;;;10.27;;
49578;SDS011;35483;50.828;3.228;2022-10-17T08:19:38;15.57;;;11.60;;
49578;SDS011;35483;50.828;3.228;2022-10-17T08:22:04;12.90;;;9.95;;
49578;SDS011;35483;50.828;3.228;2022-10-17T08:24:31;12.13;;;9.98;;
49578;SDS011;35483;50.828;3.228;2022-10-17T08:26:56;11.68;;;9.20;;
49578;SDS011;35483;50.828;3.228;2022-10-17T08:29:22;12.00;;;8.68;;
49578;SDS011;35483;50.828;3.228;2022-10-17T08:31:48;10.38;;;8.70;;
49578;SDS011;35483;50.828;3.228;2022-10-17T08:34:14;12.07;;;8.85;;
49578;SDS011;35483;50.828;3.228;2022-10-17T08:36:40;11.52;;;8.75;;
49578;SDS011;35483;50.828;3.228;2022-10-17T08:39:06;12.05;;;8.90;;
49578;SDS011;35483;50.828;3.228;2022-10-17T08:44:38;13.27;;;9.45;;
49578;SDS011;35483;50.828;3.228;2022-10-17T08:47:13;11.65;;;9.48;;
49578;SDS011;35483;50.828;3.228;2022-10-17T08:49:54;10.68;;;7.97;;
49578;SDS011;35483;50.828;3.228;2022-10-17T08:55:27;9.88;;;8.35;;
49578;SDS011;35483;50.828;3.228;2022-10-17T08:57:54;10.32;;;8.05;;
49578;SDS011;35483;50.828;3.228;2022-10-17T09:00:20;8.70;;;6.50;;
49578;SDS011;35483;50.828;3.228;2022-10-17T09:05:39;10.70;;;7.20;;
49578;SDS011;35483;50.828;3.228;2022-10-17T09:11:15;11.25;;;7.15;;
49578;SDS011;35483;50.828;3.228;2022-10-17T09:13:58;8.50;;;7.40;;
49578;SDS011;35483;50.828;3.228;2022-10-17T09:19:26;7.60;;;6.80;;
49578;SDS011;35483;50.828;3.228;2022-10-17T09:22:03;11.75;;;6.32;;
49578;SDS011;35483;50.828;3.228;2022-10-17T09:24:39;7.60;;;6.50;;
49578;SDS011;35483;50.828;3.228;2022-10-17T09:27:14;9.25;;;6.97;;
49578;SDS011;35483;50.828;3.228;2022-10-17T09:29:48;10.30;;;7.03;;
49578;SDS011;35483;50.828;3.228;2022-10-17T09:32:17;11.40;;;7.80;;
49578;SDS011;35483;50.828;3.228;2022-10-17T09:34:48;7.40;;;6.63;;
49578;SDS011;35483;50.828;3.228;2022-10-17T09:37:15;10.13;;;7.30;;
49578;SDS011;35483;50.828;3.228;2022-10-17T09:39:42;8.68;;;5.90;;
49578;SDS011;35483;50.828;3.228;2022-10-17T09:42:11;8.45;;;5.70;;
49578;SDS011;35483;50.828;3.228;2022-10-17T09:44:41;8.43;;;6.10;;
49578;SDS011;35483;50.828;3.228;2022-10-17T09:47:34;6.75;;;5.18;;
49578;SDS011;35483;50.828;3.228;2022-10-17T09:50:16;5.78;;;4.88;;
49578;SDS011;35483;50.828;3.228;2022-10-17T09:52:47;5.90;;;5.20;;
49578;SDS011;35483;50.828;3.228;2022-10-17T09:55:16;6.20;;;5.10;;
49578;SDS011;35483;50.828;3.228;2022-10-17T10:00:27;5.70;;;4.47;;
49578;SDS011;35483;50.828;3.228;2022-10-17T10:05:40;6.20;;;5.10;;
49578;SDS011;35483;50.828;3.228;2022-10-17T10:08:16;7.07;;;4.70;;
49578;SDS011;35483;50.828;3.228;2022-10-17T10:10:43;7.53;;;4.53;;
49578;SDS011;35483;50.828;3.228;2022-10-17T10:15:39;5.65;;;4.72;;
49578;SDS011;35483;50.828;3.228;2022-10-17T10:18:49;5.93;;;4.80;;
49578;SDS011;35483;50.828;3.228;2022-10-17T10:23:38;6.30;;;4.63;;
49578;SDS011;35483;50.828;3.228;2022-10-17T10:26:22;5.28;;;4.40;;
49578;SDS011;35483;50.828;3.228;2022-10-17T10:28:59;4.43;;;4.00;;
49578;SDS011;35483;50.828;3.228;2022-10-17T10:31:28;5.43;;;4.30;;
49578;SDS011;35483;50.828;3.228;2022-10-17T10:33:58;4.68;;;4.18;;
49578;SDS011;35483;50.828;3.228;2022-10-17T10:36:40;5.50;;;4.18;;
49578;SDS011;35483;50.828;3.228;2022-10-17T10:39:24;4.10;;;3.70;;
49578;SDS011;35483;50.828;3.228;2022-10-17T10:41:59;4.32;;;3.22;;
49578;SDS011;35483;50.828;3.228;2022-10-17T10:44:28;4.57;;;3.10;;
49578;SDS011;35483;50.828;3.228;2022-10-17T10:47:56;4.07;;;3.50;;
49578;SDS011;35483;50.828;3.228;2022-10-17T10:50:05;3.92;;;3.35;;
49578;SDS011;35483;50.828;3.228;2022-10-17T10:52:51;3.78;;;2.60;;
49578;SDS011;35483;50.828;3.228;2022-10-17T10:55:24;3.30;;;2.72;;
49578;SDS011;35483;50.828;3.228;2022-10-17T10:57:54;4.75;;;2.80;;
49578;SDS011;35483;50.828;3.228;2022-10-17T11:00:25;3.10;;;2.45;;
49578;SDS011;35483;50.828;3.228;2022-10-17T11:03:02;4.90;;;2.63;;
49578;SDS011;35483;50.828;3.228;2022-10-17T11:06:12;3.08;;;2.60;;
49578;SDS011;35483;50.828;3.228;2022-10-17T11:08:48;3.72;;;2.70;;
49578;SDS011;35483;50.828;3.228;2022-10-17T11:11:27;3.60;;;3.13;;
49578;SDS011;35483;50.828;3.228;2022-10-17T11:13:59;2.83;;;2.55;;
49578;SDS011;35483;50.828;3.228;2022-10-17T11:19:20;3.90;;;2.78;;
49578;SDS011;35483;50.828;3.228;2022-10-17T11:22:11;3.33;;;2.88;;
49578;SDS011;35483;50.828;3.228;2022-10-17T11:27:23;3.97;;;2.40;;
49578;SDS011;35483;50.828;3.228;2022-10-17T11:29:54;3.22;;;2.92;;
49578;SDS011;35483;50.828;3.228;2022-10-17T11:32:32;3.47;;;2.70;;
49578;SDS011;35483;50.828;3.228;2022-10-17T11:35:04;3.50;;;2.50;;
49578;SDS011;35483;50.828;3.228;2022-10-17T11:37:45;3.03;;;2.30;;
49578;SDS011;35483;50.828;3.228;2022-10-17T11:40:21;4.25;;;2.47;;
49578;SDS011;35483;50.828;3.228;2022-10-17T11:43:02;2.58;;;2.28;;
49578;SDS011;35483;50.828;3.228;2022-10-17T11:45:47;3.85;;;2.42;;
49578;SDS011;35483;50.828;3.228;2022-10-17T11:50:51;3.30;;;2.22;;
49578;SDS011;35483;50.828;3.228;2022-10-17T11:53:27;3.20;;;2.25;;
49578;SDS011;35483;50.828;3.228;2022-10-17T11:55:57;2.97;;;1.90;;
49578;SDS011;35483;50.828;3.228;2022-10-17T12:09:58;2.20;;;1.98;;
49578;SDS011;35483;50.828;3.228;2022-10-17T12:12:44;2.30;;;1.90;;
49578;SDS011;35483;50.828;3.228;2022-10-17T12:18:01;3.15;;;2.35;;
49578;SDS011;35483;50.828;3.228;2022-10-17T12:20:29;4.38;;;2.08;;
49578;SDS011;35483;50.828;3.228;2022-10-17T12:23:16;3.70;;;2.15;;
49578;SDS011;35483;50.828;3.228;2022-10-17T12:26:08;3.90;;;2.25;;
49578;SDS011;35483;50.828;3.228;2022-10-17T12:38:50;4.60;;;2.20;;
49578;SDS011;35483;50.828;3.228;2022-10-17T12:41:51;2.92;;;2.28;;
49578;SDS011;35483;50.828;3.228;2022-10-17T12:44:47;3.47;;;2.33;;
49578;SDS011;35483;50.828;3.228;2022-10-17T12:47:26;3.35;;;2.10;;
49578;SDS011;35483;50.828;3.228;2022-10-17T12:49:49;2.55;;;2.30;;
49578;SDS011;35483;50.828;3.228;2022-10-17T12:54:55;2.65;;;2.33;;
49578;SDS011;35483;50.828;3.228;2022-10-17T12:57:29;2.35;;;2.15;;
49578;SDS011;35483;50.828;3.228;2022-10-17T12:59:57;5.03;;;2.83;;
49578;SDS011;35483;50.828;3.228;2022-10-17T13:02:26;4.68;;;2.42;;
49578;SDS011;35483;50.828;3.228;2022-10-17T13:04:58;4.95;;;2.10;;
49578;SDS011;35483;50.828;3.228;2022-10-17T13:07:33;2.95;;;2.47;;
49578;SDS011;35483;50.828;3.228;2022-10-17T13:10:00;3.97;;;2.58;;
49578;SDS011;35483;50.828;3.228;2022-10-17T13:12:29;2.83;;;2.50;;
49578;SDS011;35483;50.828;3.228;2022-10-17T13:14:59;3.13;;;2.38;;
49578;SDS011;35483;50.828;3.228;2022-10-17T13:17:28;3.65;;;2.33;;
49578;SDS011;35483;50.828;3.228;2022-10-17T13:19:55;4.40;;;2.65;;
49578;SDS011;35483;50.828;3.228;2022-10-17T13:24:49;2.10;;;1.90;;
49578;SDS011;35483;50.828;3.228;2022-10-17T13:27:27;2.90;;;2.33;;
49578;SDS011;35483;50.828;3.228;2022-10-17T13:29:56;3.08;;;2.50;;
49578;SDS011;35483;50.828;3.228;2022-10-17T13:32:24;2.95;;;2.40;;
49578;SDS011;35483;50.828;3.228;2022-10-17T13:35:04;4.20;;;2.65;;
49578;SDS011;35483;50.828;3.228;2022-10-17T13:37:38;3.67;;;2.58;;
49578;SDS011;35483;50.828;3.228;2022-10-17T13:40:10;2.97;;;2.50;;
49578;SDS011;35483;50.828;3.228;2022-10-17T13:42:43;2.70;;;2.38;;
49578;SDS011;35483;50.828;3.228;2022-10-17T13:45:13;2.88;;;2.53;;
49578;SDS011;35483;50.828;3.228;2022-10-17T13:47:44;4.53;;;2.47;;
49578;SDS011;35483;50.828;3.228;2022-10-17T13:58:21;2.83;;;2.47;;
49578;SDS011;35483;50.828;3.228;2022-10-17T14:00:47;3.00;;;2.30;;
49578;SDS011;35483;50.828;3.228;2022-10-17T14:03:18;4.15;;;2.33;;
49578;SDS011;35483;50.828;3.228;2022-10-17T14:08:32;2.92;;;1.88;;
49578;SDS011;35483;50.828;3.228;2022-10-17T14:10:59;4.72;;;3.00;;
49578;SDS011;35483;50.828;3.228;2022-10-17T14:13:26;2.70;;;2.03;;
49578;SDS011;35483;50.828;3.228;2022-10-17T14:16:00;2.78;;;2.10;;
49578;SDS011;35483;50.828;3.228;2022-10-17T14:18:28;3.33;;;1.98;;
49578;SDS011;35483;50.828;3.228;2022-10-17T14:20:56;3.05;;;2.00;;
49578;SDS011;35483;50.828;3.228;2022-10-17T14:23:31;3.03;;;2.20;;
49578;SDS011;35483;50.828;3.228;2022-10-17T14:26:04;5.07;;;2.28;;
49578;SDS011;35483;50.828;3.228;2022-10-17T14:28:38;3.83;;;1.85;;
49578;SDS011;35483;50.828;3.228;2022-10-17T14:33:43;1.95;;;1.75;;
49578;SDS011;35483;50.828;3.228;2022-10-17T14:36:11;2.75;;;1.80;;
49578;SDS011;35483;50.828;3.228;2022-10-17T14:38:37;2.63;;;1.83;;
49578;SDS011;35483;50.828;3.228;2022-10-17T14:43:56;2.45;;;1.77;;
49578;SDS011;35483;50.828;3.228;2022-10-17T14:46:24;2.38;;;1.95;;
49578;SDS011;35483;50.828;3.228;2022-10-17T14:48:56;3.55;;;3.05;;
49578;SDS011;35483;50.828;3.228;2022-10-17T14:51:30;4.45;;;2.58;;
49578;SDS011;35483;50.828;3.228;2022-10-17T14:54:00;4.00;;;1.90;;
49578;SDS011;35483;50.828;3.228;2022-10-17T14:56:42;3.90;;;2.25;;
49578;SDS011;35483;50.828;3.228;2022-10-17T14:59:14;2.70;;;1.77;;
49578;SDS011;35483;50.828;3.228;2022-10-17T15:01:42;3.75;;;1.63;;
49578;SDS011;35483;50.828;3.228;2022-10-17T15:04:07;2.67;;;1.80;;
49578;SDS011;35483;50.828;3.228;2022-10-17T15:06:35;2.95;;;1.60;;
49578;SDS011;35483;50.828;3.228;2022-10-17T15:09:01;2.90;;;1.45;;
49578;SDS011;35483;50.828;3.228;2022-10-17T15:11:28;3.05;;;1.63;;
49578;SDS011;35483;50.828;3.228;2022-10-17T15:13:54;2.47;;;2.00;;
49578;SDS011;35483;50.828;3.228;2022-10-17T15:16:23;3.28;;;2.00;;
49578;SDS011;35483;50.828;3.228;2022-10-17T15:18:51;5.85;;;3.83;;
49578;SDS011;35483;50.828;3.228;2022-10-17T15:21:19;3.55;;;1.52;;
49578;SDS011;35483;50.828;3.228;2022-10-17T15:23:46;1.65;;;1.48;;
49578;SDS011;35483;50.828;3.228;2022-10-17T15:26:22;2.67;;;1.67;;
49578;SDS011;35483;50.828;3.228;2022-10-17T15:28:49;2.70;;;1.80;;
49578;SDS011;35483;50.828;3.228;2022-10-17T15:31:18;3.42;;;2.17;;
49578;SDS011;35483;50.828;3.228;2022-10-17T15:33:46;5.15;;;2.03;;
49578;SDS011;35483;50.828;3.228;2022-10-17T15:38:49;3.65;;;2.10;;
49578;SDS011;35483;50.828;3.228;2022-10-17T15:41:17;2.20;;;2.08;;
49578;SDS011;35483;50.828;3.228;2022-10-17T15:43:43;3.58;;;2.00;;
49578;SDS011;35483;50.828;3.228;2022-10-17T15:46:11;4.70;;;2.72;;
49578;SDS011;35483;50.828;3.228;2022-10-17T15:48:39;3.55;;;2.22;;
49578;SDS011;35483;50.828;3.228;2022-10-17T15:51:05;3.72;;;2.10;;
49578;SDS011;35483;50.828;3.228;2022-10-17T15:53:32;3.60;;;2.03;;
49578;SDS011;35483;50.828;3.228;2022-10-17T15:55:58;3.58;;;2.30;;
49578;SDS011;35483;50.828;3.228;2022-10-17T15:58:24;3.45;;;1.90;;
49578;SDS011;35483;50.828;3.228;2022-10-17T16:00:52;3.88;;;1.73;;
49578;SDS011;35483;50.828;3.228;2022-10-17T16:03:18;4.07;;;2.08;;
49578;SDS011;35483;50.828;3.228;2022-10-17T16:05:44;1.98;;;1.80;;
49578;SDS011;35483;50.828;3.228;2022-10-17T16:08:09;1.83;;;1.70;;
49578;SDS011;35483;50.828;3.228;2022-10-17T16:10:36;2.88;;;1.75;;
49578;SDS011;35483;50.828;3.228;2022-10-17T16:13:03;5.88;;;2.00;;
49578;SDS011;35483;50.828;3.228;2022-10-17T16:15:29;2.40;;;2.20;;
49578;SDS011;35483;50.828;3.228;2022-10-17T16:17:55;5.78;;;3.42;;
49578;SDS011;35483;50.828;3.228;2022-10-17T16:20:22;3.20;;;2.60;;
49578;SDS011;35483;50.828;3.228;2022-10-17T16:22:49;3.20;;;2.33;;
49578;SDS011;35483;50.828;3.228;2022-10-17T16:25:18;3.20;;;2.50;;
49578;SDS011;35483;50.828;3.228;2022-10-17T16:27:49;4.10;;;2.17;;
49578;SDS011;35483;50.828;3.228;2022-10-17T16:30:17;2.10;;;1.90;;
49578;SDS011;35483;50.828;3.228;2022-10-17T16:32:43;3.13;;;2.15;;
49578;SDS011;35483;50.828;3.228;2022-10-17T16:35:10;3.78;;;2.40;;
49578;SDS011;35483;50.828;3.228;2022-10-17T16:37:43;3.22;;;2.35;;
49578;SDS011;35483;50.828;3.228;2022-10-17T16:40:09;4.50;;;2.70;;
49578;SDS011;35483;50.828;3.228;2022-10-17T16:42:35;5.75;;;2.60;;
49578;SDS011;35483;50.828;3.228;2022-10-17T16:45:01;6.53;;;3.15;;
49578;SDS011;35483;50.828;3.228;2022-10-17T16:47:27;5.93;;;4.32;;